Time;durP1;ratioP1;P1;durP2;ratioP2;P2;SDS_P1;SDS_P2;PMS_P1;PMS_P2;Temp;Humidity;BMP_temperature;BMP_pressure;BME280_temperature;BME280_humidity;BME280_pressure;Samples;Min_cycle;Max_cycle;Signal;HPM_P1;HPM_P2
2022/04/03 00:08:48;;;;;;;0.20;0.10;;;7.80;99.90;;;;;;25409510;23;20353;-75
2022/04/03 00:18:52;;;;;;;0.20;0.20;;;7.80;99.90;;;;;;25408706;23;20211;-74
2022/04/03 00:28:57;;;;;;;0.30;0.30;;;7.70;99.90;;;;;;25407937;23;20465;-74
2022/04/03 00:39:01;;;;;;;0.20;0.10;;;7.70;99.90;;;;;;25382290;23;20207;-74
2022/04/03 00:49:06;;;;;;;0.20;0.10;;;7.70;99.90;;;;;;25385429;23;20199;-75
2022/04/03 00:59:13;;;;;;;0.20;0.10;;;7.50;99.90;;;;;;25407135;23;20202;-63
2022/04/03 01:09:18;;;;;;;0.20;0.10;;;7.40;99.90;;;;;;25408159;23;20186;-62
2022/04/03 01:19:21;;;;;;;0.20;0.10;;;7.30;99.90;;;;;;25378872;23;20187;-62
2022/04/03 01:29:27;;;;;;;0.20;0.10;;;7.40;99.90;;;;;;25407776;23;20494;-62
2022/04/03 01:39:31;;;;;;;0.20;0.10;;;7.50;99.90;;;;;;25408192;23;20214;-62
2022/04/03 01:49:36;;;;;;;0.20;0.10;;;7.40;99.90;;;;;;25406826;23;20201;-63
2022/04/03 01:59:39;;;;;;;0.20;0.10;;;7.40;99.90;;;;;;25379079;23;20191;-62
2022/04/03 02:09:45;;;;;;;0.20;0.10;;;7.40;99.90;;;;;;25402869;23;20174;-62
2022/04/03 02:19:48;;;;;;;0.20;0.10;;;7.40;99.90;;;;;;25400393;23;20230;-62
2022/04/03 02:29:57;;;;;;;0.20;0.10;;;7.30;99.90;;;;;;25400201;23;20178;-62
2022/04/03 02:40:01;;;;;;;1.23;1.10;;;7.40;99.90;;;;;;25378155;23;20211;-63
2022/04/03 02:50:09;;;;;;;0.20;0.10;;;7.40;99.90;;;;;;25404099;23;20203;-62
2022/04/03 03:00:14;;;;;;;0.20;0.10;;;7.40;99.90;;;;;;25405346;23;20188;-61
2022/04/03 03:10:22;;;;;;;0.20;0.10;;;7.50;99.90;;;;;;25409442;23;20167;-75
2022/04/03 03:20:26;;;;;;;0.20;0.00;;;7.50;99.90;;;;;;25360939;23;20192;-75
2022/04/03 03:30:32;;;;;;;0.20;0.10;;;7.50;99.90;;;;;;25411786;23;20176;-74
2022/04/03 03:40:38;;;;;;;0.20;0.10;;;7.40;99.90;;;;;;25387322;23;20239;-75
2022/04/03 03:50:43;;;;;;;0.20;0.10;;;7.30;99.90;;;;;;25388778;23;20210;-76
2022/04/03 04:00:48;;;;;;;0.20;0.10;;;7.20;99.90;;;;;;25409058;23;20232;-76
2022/04/03 04:10:53;;;;;;;0.20;0.10;;;7.20;99.90;;;;;;25411268;23;20449;-77
2022/04/03 04:20:57;;;;;;;0.20;0.10;;;7.10;99.90;;;;;;25408520;23;20207;-77
2022/04/03 04:31:02;;;;;;;0.20;0.10;;;7.10;99.90;;;;;;25407665;23;20444;-76
2022/04/03 04:41:06;;;;;;;0.20;0.10;;;7.20;99.90;;;;;;25408477;23;20206;-76
2022/04/03 04:51:11;;;;;;;0.20;0.10;;;7.20;99.90;;;;;;25411292;23;20510;-76
2022/04/03 05:01:15;;;;;;;0.20;0.10;;;7.60;99.90;;;;;;25406806;23;20202;-63
2022/04/03 05:11:21;;;;;;;0.20;0.10;;;7.60;99.90;;;;;;25382012;23;20182;-63
2022/04/03 05:21:25;;;;;;;0.20;0.10;;;7.80;99.90;;;;;;25406389;23;20203;-76
2022/04/03 05:31:31;;;;;;;0.20;0.10;;;7.80;99.90;;;;;;25405556;23;20183;-77
2022/04/03 05:41:35;;;;;;;0.20;0.10;;;7.80;99.90;;;;;;25407634;23;20191;-63
2022/04/03 05:51:40;;;;;;;0.20;0.10;;;7.60;99.90;;;;;;25404327;23;20195;-61
2022/04/03 06:01:44;;;;;;;0.20;0.10;;;7.70;99.90;;;;;;25408262;23;20198;-62
2022/04/03 06:11:51;;;;;;;0.20;0.10;;;7.50;99.90;;;;;;25404933;23;20206;-62
2022/04/03 06:21:55;;;;;;;0.20;0.10;;;7.40;99.90;;;;;;25402806;23;20203;-61
2022/04/03 06:32:00;;;;;;;0.23;0.17;;;7.20;99.90;;;;;;25400331;23;20222;-75
2022/04/03 06:42:04;;;;;;;0.20;0.10;;;7.10;99.90;;;;;;25403281;23;20478;-75
2022/04/03 06:52:10;;;;;;;0.20;0.10;;;7.20;99.90;;;;;;25374935;23;20226;-74
2022/04/03 07:02:14;;;;;;;0.20;0.10;;;7.30;99.90;;;;;;25400912;23;20203;-74
2022/04/03 07:12:19;;;;;;;0.20;0.10;;;7.30;99.90;;;;;;25400712;23;20506;-73
2022/04/03 07:22:23;;;;;;;0.20;0.10;;;7.20;99.90;;;;;;25400712;23;20215;-75
2022/04/03 07:32:28;;;;;;;0.20;0.10;;;7.30;99.90;;;;;;25400619;23;20518;-73
2022/04/03 07:42:32;;;;;;;0.20;0.10;;;7.40;99.90;;;;;;25399736;23;20304;-76
2022/04/03 07:52:37;;;;;;;0.20;0.10;;;7.90;99.90;;;;;;25406426;23;20164;-73
2022/04/03 08:02:42;;;;;;;0.20;0.10;;;8.70;99.90;;;;;;25406873;23;20207;-78
2022/04/03 08:12:48;;;;;;;0.20;0.10;;;9.00;99.90;;;;;;25405266;23;20464;-76
2022/04/03 08:22:52;;;;;;;0.20;0.10;;;9.80;99.90;;;;;;25406183;23;20211;-78
2022/04/03 08:32:58;;;;;;;0.20;0.10;;;10.30;99.90;;;;;;25404815;23;20183;-76
2022/04/03 08:43:03;;;;;;;0.20;0.10;;;11.00;99.90;;;;;;25386283;23;20222;-77
2022/04/03 08:53:10;;;;;;;0.20;0.10;;;10.70;99.90;;;;;;25417769;23;20502;-78
2022/04/03 09:03:13;;;;;;;0.20;0.10;;;10.70;99.90;;;;;;25402306;23;20210;-69
2022/04/03 09:13:25;;;;;;;0.20;0.10;;;10.70;99.90;;;;;;25374886;23;20231;-79
2022/04/03 09:23:29;;;;;;;0.20;0.10;;;10.40;99.90;;;;;;25406082;23;20190;-78
2022/04/03 09:33:34;;;;;;;0.20;0.10;;;11.10;99.90;;;;;;25401500;23;20194;-68
2022/04/03 09:43:39;;;;;;;0.20;0.10;;;10.70;99.90;;;;;;25374616;23;20196;-69
2022/04/03 09:53:49;;;;;;;0.20;0.10;;;10.70;99.90;;;;;;25398714;23;20183;-68
2022/04/03 10:03:53;;;;;;;0.20;0.10;;;11.00;99.90;;;;;;25396623;23;20172;-69
2022/04/03 10:13:58;;;;;;;0.20;0.10;;;11.00;99.90;;;;;;25396016;23;20266;-68
2022/04/03 10:24:07;;;;;;;0.20;0.10;;;10.60;99.90;;;;;;25398231;23;20171;-68
2022/04/03 10:34:14;;;;;;;0.20;0.10;;;9.70;99.90;;;;;;25390645;23;20218;-69
2022/04/03 10:44:25;;;;;;;0.20;0.10;;;9.30;99.90;;;;;;25372681;23;20274;-74
2022/04/03 10:54:32;;;;;;;0.20;0.10;;;8.70;99.90;;;;;;25370893;23;20188;-68
2022/04/03 11:04:36;;;;;;;0.20;0.10;;;9.20;99.90;;;;;;25396347;23;20168;-69
2022/04/03 11:14:57;;;;;;;0.20;0.10;;;9.80;99.90;;;;;;25393311;23;20217;-68
2022/04/03 11:25:01;;;;;;;0.20;0.10;;;9.40;99.90;;;;;;25367567;23;20183;-77
2022/04/03 11:35:09;;;;;;;0.20;0.10;;;9.30;99.90;;;;;;25378531;23;20419;-76
2022/04/03 11:45:14;;;;;;;0.20;0.10;;;9.10;99.90;;;;;;25403329;23;20203;-79
2022/04/03 11:55:19;;;;;;;0.20;0.10;;;9.10;99.90;;;;;;25402090;23;20329;-73
2022/04/03 12:05:23;;;;;;;0.20;0.00;;;9.00;99.90;;;;;;25412505;23;20267;-77
2022/04/03 12:15:32;;;;;;;0.20;0.10;;;8.50;99.90;;;;;;25410562;23;20207;-78
2022/04/03 12:25:56;;;;;;;0.20;0.10;;;9.20;99.90;;;;;;25401050;23;20171;-77
2022/04/03 12:36:02;;;;;;;0.20;0.10;;;9.20;99.90;;;;;;25378701;23;20191;-77
2022/04/03 12:46:13;;;;;;;0.20;0.10;;;8.70;99.90;;;;;;25403802;23;20573;-81
2022/04/03 12:56:18;;;;;;;0.20;0.10;;;8.30;99.90;;;;;;25399976;23;20219;-68
2022/04/03 13:06:25;;;;;;;0.20;0.10;;;8.30;99.90;;;;;;25404470;23;20175;-69
2022/04/03 13:16:31;;;;;;;0.20;0.10;;;8.10;99.90;;;;;;25401659;23;20200;-67
2022/04/03 13:26:35;;;;;;;0.20;0.10;;;8.20;99.90;;;;;;25403301;23;20172;-68
2022/04/03 13:36:40;;;;;;;0.20;0.10;;;7.90;99.90;;;;;;25404620;23;20262;-80
2022/04/03 13:46:44;;;;;;;0.20;0.10;;;8.20;99.90;;;;;;25406769;23;20195;-79
2022/04/03 13:56:49;;;;;;;0.20;0.00;;;8.00;99.90;;;;;;25384298;23;20191;-79
2022/04/03 14:06:53;;;;;;;0.20;0.00;;;8.10;99.90;;;;;;25412535;23;20186;-80
2022/04/03 14:16:58;;;;;;;0.20;0.00;;;8.00;99.90;;;;;;25404190;23;20214;-76
2022/04/03 14:27:02;;;;;;;0.20;0.00;;;8.80;99.90;;;;;;25401191;23;20167;-78
2022/04/03 14:37:07;;;;;;;0.20;0.20;;;9.60;99.90;;;;;;25380713;23;20203;-79
2022/04/03 16:14:25;;;;;;;0.20;0.10;;;13.30;99.90;;;;;;25511171;23;20202;-78
2022/04/03 16:24:30;;;;;;;0.20;0.10;;;11.20;99.90;;;;;;25411647;23;20171;-77
2022/04/03 16:34:34;;;;;;;0.20;0.10;;;11.20;99.90;;;;;;25412556;23;20163;-78
2022/04/03 16:44:39;;;;;;;0.20;0.10;;;10.60;99.90;;;;;;25410260;23;20168;-76
2022/04/03 16:54:43;;;;;;;0.20;0.10;;;10.40;99.90;;;;;;25385674;23;20187;-79
2022/04/03 17:04:49;;;;;;;0.20;0.00;;;10.20;99.90;;;;;;25384441;23;20195;-77
2022/04/03 17:14:53;;;;;;;0.20;0.10;;;10.80;99.90;;;;;;25379630;23;20298;-62
2022/04/03 17:24:58;;;;;;;0.20;0.10;;;10.40;99.90;;;;;;25404763;23;20183;-62
2022/04/03 17:35:06;;;;;;;0.20;0.10;;;10.60;99.90;;;;;;25377696;23;20187;-61
2022/04/03 17:45:12;;;;;;;0.20;0.10;;;10.10;99.90;;;;;;25401010;23;20258;-63
2022/04/03 17:55:16;;;;;;;0.20;0.00;;;9.40;99.90;;;;;;25397915;23;20191;-61
2022/04/03 18:05:21;;;;;;;0.20;0.07;;;9.10;99.90;;;;;;25405125;23;20172;-60
2022/04/03 18:15:26;;;;;;;0.20;0.00;;;8.70;99.90;;;;;;25379944;23;20208;-61
2022/04/03 18:25:31;;;;;;;0.20;0.00;;;8.50;99.90;;;;;;25403476;23;20171;-61
2022/04/03 18:35:36;;;;;;;0.20;0.03;;;8.30;99.90;;;;;;25399486;23;20187;-61
2022/04/03 18:45:41;;;;;;;0.20;0.00;;;8.40;99.90;;;;;;25404425;23;20183;-61
2022/04/03 18:55:46;;;;;;;0.20;0.00;;;8.20;99.90;;;;;;25405440;23;20640;-61
2022/04/03 19:05:51;;;;;;;0.20;0.00;;;8.10;99.90;;;;;;25404155;23;20156;-62
2022/04/03 19:15:56;;;;;;;0.20;0.00;;;8.10;99.90;;;;;;25404822;23;20210;-62
2022/04/03 19:26:01;;;;;;;0.20;0.10;;;8.10;99.90;;;;;;25407244;23;20174;-61
2022/04/03 19:36:10;;;;;;;0.20;0.00;;;8.00;99.90;;;;;;25403629;23;20183;-61
2022/04/03 19:46:15;;;;;;;0.20;0.00;;;7.60;99.90;;;;;;25408093;23;20168;-60
2022/04/03 19:56:19;;;;;;;0.20;0.07;;;7.60;99.90;;;;;;25411936;23;20359;-62
2022/04/03 20:06:25;;;;;;;0.20;0.00;;;7.60;99.90;;;;;;25412299;23;20163;-60
2022/04/03 20:16:28;;;;;;;0.20;0.00;;;7.20;99.90;;;;;;25411797;23;20214;-61
2022/04/03 20:26:34;;;;;;;0.20;0.00;;;7.00;99.90;;;;;;25412467;23;20206;-61
2022/04/03 20:36:37;;;;;;;0.20;0.00;;;6.70;99.90;;;;;;25410775;23;20192;-63
2022/04/03 20:46:45;;;;;;;0.20;0.10;;;6.50;99.90;;;;;;25412486;23;20171;-63
2022/04/03 20:56:51;;;;;;;0.20;0.00;;;6.50;99.90;;;;;;25385373;23;20187;-61
2022/04/03 21:06:57;;;;;;;0.20;0.00;;;6.30;99.90;;;;;;25411257;23;20168;-63
2022/04/03 21:17:02;;;;;;;0.20;0.00;;;6.30;99.90;;;;;;25412550;23;20546;-62
2022/04/03 21:27:08;;;;;;;0.20;0.00;;;6.20;99.90;;;;;;25410145;23;20175;-63
2022/04/03 21:37:11;;;;;;;0.63;0.63;;;6.00;99.90;;;;;;25412570;23;20188;-61
2022/04/03 21:47:17;;;;;;;0.20;0.10;;;5.90;99.90;;;;;;25411232;23;20300;-64
2022/04/03 21:57:20;;;;;;;0.20;0.10;;;5.80;99.90;;;;;;25410782;23;20563;-63
2022/04/03 22:07:25;;;;;;;0.20;0.00;;;6.00;99.90;;;;;;25409275;23;20182;-63
2022/04/03 22:17:29;;;;;;;0.20;0.10;;;6.00;99.90;;;;;;25407857;23;20268;-62
2022/04/03 22:27:34;;;;;;;0.20;0.10;;;5.90;99.90;;;;;;25410056;23;20246;-62
2022/04/03 22:37:40;;;;;;;0.20;0.00;;;6.10;99.90;;;;;;25409734;23;20196;-63
2022/04/03 22:47:45;;;;;;;0.20;0.10;;;6.30;99.90;;;;;;25383295;23;20478;-64
2022/04/03 22:57:49;;;;;;;0.20;0.10;;;6.20;99.90;;;;;;25404705;23;20202;-63
2022/04/03 23:07:55;;;;;;;0.20;0.00;;;6.20;99.90;;;;;;25380727;23;20183;-63
2022/04/03 23:17:59;;;;;;;0.20;0.10;;;6.30;99.90;;;;;;25402839;23;20199;-63
2022/04/03 23:28:05;;;;;;;0.20;0.10;;;6.40;99.90;;;;;;25406912;23;20179;-62
2022/04/03 23:38:09;;;;;;;0.20;0.00;;;6.40;99.90;;;;;;25410990;23;20187;-62
2022/04/03 23:48:14;;;;;;;0.20;0.00;;;6.40;99.90;;;;;;25412086;23;20184;-62
2022/04/03 23:58:18;;;;;;;0.20;0.00;;;6.40;99.90;;;;;;25411308;23;20191;-62
